Time;durP1;ratioP1;P1;durP2;ratioP2;P2;SDS_P1;SDS_P2;PMS_P1;PMS_P2;Temp;Humidity;BMP_temperature;BMP_pressure;BME280_temperature;BME280_humidity;BME280_pressure;Samples;Min_cycle;Max_cycle;Signal;HPM_P1;HPM_P2
2023/08/04 00:00:46;;;;;;;;;;;16.40;99.90;;;;;;8430834;28;20371;-70
2023/08/04 00:04:47;;;;;;;;;;;16.40;99.90;;;;;;8426802;28;19924;-71
2023/08/04 00:08:49;;;;;;;;;;;16.30;99.90;;;;;;8421745;28;19932;-71
2023/08/04 00:12:51;;;;;;;;;;;16.30;99.90;;;;;;8404774;28;20380;-71
2023/08/04 00:16:52;;;;;;;;;;;16.30;99.90;;;;;;8425248;28;19927;-71
2023/08/04 00:20:54;;;;;;;;;;;16.30;99.90;;;;;;8424182;28;19993;-71
2023/08/04 00:24:56;;;;;;;;;;;16.30;99.90;;;;;;8416363;28;19924;-71
2023/08/04 00:28:57;;;;;;;;;;;16.20;99.90;;;;;;8426966;28;19935;-71
2023/08/04 00:32:59;;;;;;;;;;;16.20;99.90;;;;;;8400366;28;19932;-70
2023/08/04 00:37:01;;;;;;;;;;;16.10;99.90;;;;;;8405132;28;20280;-71
2023/08/04 00:41:03;;;;;;;;;;;16.00;99.90;;;;;;8426421;28;19969;-70
2023/08/04 00:45:05;;;;;;;;;;;15.90;99.90;;;;;;8424096;28;20469;-71
2023/08/04 00:49:07;;;;;;;;;;;15.90;99.90;;;;;;8415547;28;20285;-71
2023/08/04 00:53:09;;;;;;;;;;;15.80;99.90;;;;;;8425240;28;20288;-71
2023/08/04 00:57:11;;;;;;;;;;;15.70;99.90;;;;;;8421396;28;19928;-71
2023/08/04 01:01:13;;;;;;;;;;;15.70;99.90;;;;;;8422751;28;20253;-71
2023/08/04 01:05:15;;;;;;;;;;;15.70;99.90;;;;;;8403933;28;20333;-71
2023/08/04 01:09:35;;;;;;;;;;;15.70;99.90;;;;;;8427856;28;20351;-71
2023/08/04 01:13:38;;;;;;;;;;;15.70;99.90;;;;;;8424087;28;20341;-71
2023/08/04 01:17:40;;;;;;;;;;;15.70;99.90;;;;;;8423661;28;19950;-71
2023/08/04 01:21:42;;;;;;;;;;;15.70;99.90;;;;;;8419474;28;20340;-71
2023/08/04 01:25:44;;;;;;;;;;;15.60;99.90;;;;;;8399989;28;20376;-71
2023/08/04 01:29:46;;;;;;;;;;;15.60;99.90;;;;;;8405209;28;19993;-71
2023/08/04 01:33:48;;;;;;;;;;;15.50;99.90;;;;;;8418393;28;19925;-71
2023/08/04 01:37:50;;;;;;;;;;;15.50;99.90;;;;;;8418472;28;19924;-71
2023/08/04 01:41:52;;;;;;;;;;;15.60;99.90;;;;;;8417748;28;19931;-71
2023/08/04 01:45:53;;;;;;;;;;;15.60;99.90;;;;;;8419854;28;20384;-71
2023/08/04 02:00:03;;;;;;;;;;;15.60;99.90;;;;;;8414119;28;19965;-71
2023/08/04 02:04:05;;;;;;;;;;;15.50;99.90;;;;;;8421698;28;19924;-71
2023/08/04 02:08:06;;;;;;;;;;;15.50;99.90;;;;;;8424476;28;19928;-70
2023/08/04 02:12:08;;;;;;;;;;;15.50;99.90;;;;;;8409125;28;19924;-70
2023/08/04 02:16:10;;;;;;;;;;;15.50;99.90;;;;;;8424837;28;20329;-71
2023/08/04 02:20:11;;;;;;;;;;;15.60;99.90;;;;;;8394643;28;19998;-70
2023/08/04 02:24:13;;;;;;;;;;;15.60;99.90;;;;;;8410214;28;19970;-71
2023/08/04 02:28:15;;;;;;;;;;;15.50;99.90;;;;;;8419788;28;19946;-71
2023/08/04 02:32:16;;;;;;;;;;;15.50;99.90;;;;;;8422784;28;19937;-70
2023/08/04 02:36:19;;;;;;;;;;;15.50;99.90;;;;;;8421619;28;19947;-70
2023/08/04 02:40:21;;;;;;;;;;;15.50;99.90;;;;;;8421671;28;19951;-71
2023/08/04 02:44:22;;;;;;;;;;;15.40;99.90;;;;;;8408413;28;19932;-71
2023/08/04 02:48:24;;;;;;;;;;;15.40;99.90;;;;;;8409234;28;19924;-71
2023/08/04 02:57:31;;;;;;;;;;;15.50;99.90;;;;;;8421738;28;19928;-71
2023/08/04 03:01:33;;;;;;;;;;;15.40;99.90;;;;;;8425247;28;19924;-71
2023/08/04 03:05:34;;;;;;;;;;;15.40;99.90;;;;;;8397976;28;19924;-71
2023/08/04 03:09:36;;;;;;;;;;;15.40;99.90;;;;;;8417004;28;19982;-70
2023/08/04 03:13:38;;;;;;;;;;;15.40;99.90;;;;;;8427854;28;19924;-70
2023/08/04 03:17:40;;;;;;;;;;;15.40;99.90;;;;;;8437293;28;19947;-71
2023/08/04 03:21:41;;;;;;;;;;;15.40;99.90;;;;;;8431211;28;20295;-71
2023/08/04 03:25:43;;;;;;;;;;;15.50;99.90;;;;;;8416950;28;19928;-71
2023/08/04 03:29:46;;;;;;;;;;;15.50;99.90;;;;;;8435634;28;19928;-70
2023/08/04 03:33:48;;;;;;;;;;;15.50;99.90;;;;;;8408009;28;19931;-71
2023/08/04 03:37:50;;;;;;;;;;;15.60;99.90;;;;;;8432821;28;20261;-71
2023/08/04 03:41:51;;;;;;;;;;;15.60;99.90;;;;;;8423356;28;19924;-71
2023/08/04 03:45:53;;;;;;;;;;;15.60;99.90;;;;;;8430362;28;19939;-71
2023/08/04 03:49:55;;;;;;;;;;;15.60;99.90;;;;;;8415667;28;19924;-70
2023/08/04 03:53:56;;;;;;;;;;;15.60;99.90;;;;;;8420089;28;19936;-71
2023/08/04 03:57:58;;;;;;;;;;;15.70;99.90;;;;;;8430222;28;19924;-71
2023/08/04 04:02:00;;;;;;;;;;;15.70;99.90;;;;;;8409582;28;19924;-71
2023/08/04 04:06:02;;;;;;;;;;;15.70;99.90;;;;;;8421817;28;20475;-71
2023/08/04 04:20:11;;;;;;;;;;;15.70;99.90;;;;;;8429660;28;19918;-71
2023/08/04 04:24:12;;;;;;;;;;;15.70;99.90;;;;;;8411857;28;19929;-71
2023/08/04 04:28:14;;;;;;;;;;;15.70;99.90;;;;;;8418253;28;19935;-71
2023/08/04 04:32:15;;;;;;;;;;;15.70;99.90;;;;;;8421266;28;19929;-71
2023/08/04 04:36:17;;;;;;;;;;;15.70;99.90;;;;;;8420723;28;19939;-70
2023/08/04 04:40:19;;;;;;;;;;;15.70;99.90;;;;;;8408788;28;19924;-70
2023/08/04 04:44:20;;;;;;;;;;;15.80;99.90;;;;;;8428773;28;19924;-70
2023/08/04 04:48:23;;;;;;;;;;;15.80;99.90;;;;;;8429757;28;20349;-71
2023/08/04 04:52:29;;;;;;;;;;;15.80;99.90;;;;;;8412062;28;20429;-70
2023/08/04 04:56:31;;;;;;;;;;;15.80;99.90;;;;;;8424355;28;19924;-71
2023/08/04 05:00:34;;;;;;;;;;;15.80;99.90;;;;;;8428906;28;19924;-71
2023/08/04 05:04:35;;;;;;;;;;;15.80;99.90;;;;;;8408178;28;19925;-71
2023/08/04 05:08:37;;;;;;;;;;;15.90;99.90;;;;;;8418775;28;19971;-71
2023/08/04 05:12:39;;;;;;;;;;;15.90;99.90;;;;;;8400253;28;19969;-71
2023/08/04 05:16:42;;;;;;;;;;;16.00;99.90;;;;;;8423935;28;19977;-71
2023/08/04 05:20:47;;;;;;;;;;;16.00;99.90;;;;;;8422834;28;20332;-70
2023/08/04 05:34:57;;;;;;;;;;;16.00;99.90;;;;;;8415703;28;20279;-71
2023/08/04 05:38:58;;;;;;;;;;;16.10;99.90;;;;;;8420958;28;19925;-71
2023/08/04 05:43:00;;;;;;;;;;;16.10;99.90;;;;;;8424683;28;19931;-71
2023/08/04 05:47:02;;;;;;;;;;;16.10;99.90;;;;;;8398626;28;20315;-71
2023/08/04 05:51:04;;;;;;;;;;;16.10;99.90;;;;;;8423091;28;19936;-71
2023/08/04 05:55:06;;;;;;;;;;;16.10;99.90;;;;;;8422654;28;19924;-71
2023/08/04 05:59:07;;;;;;;;;;;16.10;99.90;;;;;;8418443;28;19924;-71
2023/08/04 06:03:09;;;;;;;;;;;16.20;99.90;;;;;;8420600;28;19924;-71
2023/08/04 06:07:11;;;;;;;;;;;16.20;99.90;;;;;;8426788;28;20325;-71
2023/08/04 06:11:13;;;;;;;;;;;16.30;99.90;;;;;;8425358;28;20292;-71
2023/08/04 06:15:14;;;;;;;;;;;16.20;99.90;;;;;;8427929;28;20372;-71
2023/08/04 06:19:16;;;;;;;;;;;16.30;99.90;;;;;;8420998;28;20273;-71
2023/08/04 06:23:18;;;;;;;;;;;16.30;99.90;;;;;;8410577;28;19958;-71
2023/08/04 06:27:19;;;;;;;;;;;16.40;99.90;;;;;;8413192;28;19947;-71
2023/08/04 06:31:21;;;;;;;;;;;16.30;99.90;;;;;;8417328;28;19924;-71
2023/08/04 06:35:23;;;;;;;;;;;16.40;99.90;;;;;;8424278;28;19924;-71
2023/08/04 06:39:24;;;;;;;;;;;16.50;99.90;;;;;;8426194;28;19931;-71
2023/08/04 06:43:26;;;;;;;;;;;16.60;99.90;;;;;;8409168;28;19928;-71
2023/08/04 06:47:27;;;;;;;;;;;16.60;99.90;;;;;;8426585;28;19928;-71
2023/08/04 06:51:29;;;;;;;;;;;16.70;99.90;;;;;;8403204;28;19924;-71
2023/08/04 06:55:31;;;;;;;;;;;16.70;99.90;;;;;;8417384;28;19931;-71
2023/08/04 06:59:33;;;;;;;;;;;16.80;99.90;;;;;;8420760;28;19924;-71
2023/08/04 07:03:35;;;;;;;;;;;16.90;99.90;;;;;;8396503;28;20146;-70
2023/08/04 07:07:36;;;;;;;;;;;16.90;99.90;;;;;;8415090;28;19981;-70
2023/08/04 07:11:38;;;;;;;;;;;17.00;99.90;;;;;;8413554;28;20284;-71
2023/08/04 07:15:40;;;;;;;;;;;17.00;99.90;;;;;;8407296;28;19977;-71
2023/08/04 07:19:41;;;;;;;;;;;17.10;99.90;;;;;;8424870;28;19933;-71
2023/08/04 07:23:43;;;;;;;;;;;17.10;99.90;;;;;;8402119;28;19928;-71
2023/08/04 07:27:44;;;;;;;;;;;17.10;99.90;;;;;;8398394;28;20265;-70
2023/08/04 07:31:46;;;;;;;;;;;17.20;99.90;;;;;;8398355;28;19970;-71
2023/08/04 07:35:52;;;;;;;;;;;17.20;99.90;;;;;;8423031;28;20374;-71
2023/08/04 07:39:53;;;;;;;;;;;17.30;99.90;;;;;;8423259;28;19977;-71
2023/08/04 07:43:55;;;;;;;;;;;17.30;99.90;;;;;;8425246;28;19924;-71
2023/08/04 07:47:56;;;;;;;;;;;17.40;99.90;;;;;;8424729;28;19931;-71
2023/08/04 07:51:58;;;;;;;;;;;17.40;99.90;;;;;;8403613;28;20295;-71
2023/08/04 07:56:00;;;;;;;;;;;17.50;99.90;;;;;;8415945;28;19924;-71
2023/08/04 08:00:02;;;;;;;;;;;17.50;99.90;;;;;;8428481;28;19931;-71
2023/08/04 08:04:03;;;;;;;;;;;17.50;99.90;;;;;;8414089;28;19924;-71
2023/08/04 08:08:05;;;;;;;;;;;17.40;99.90;;;;;;8427145;28;20330;-71
2023/08/04 08:12:07;;;;;;;;;;;17.30;99.90;;;;;;8407110;28;20484;-70
2023/08/04 08:16:09;;;;;;;;;;;17.10;99.90;;;;;;8421579;28;19924;-71
2023/08/04 08:20:11;;;;;;;;;;;17.00;99.90;;;;;;8417188;28;19924;-71
2023/08/04 08:24:12;;;;;;;;;;;16.90;99.90;;;;;;8407898;28;20015;-71
2023/08/04 08:28:14;;;;;;;;;;;17.00;99.90;;;;;;8413347;28;19973;-71
2023/08/04 08:32:16;;;;;;;;;;;17.00;99.90;;;;;;8424215;28;19928;-71
2023/08/04 08:36:19;;;;;;;;;;;17.10;99.90;;;;;;8425407;28;19953;-71
2023/08/04 08:40:23;;;;;;;;;;;17.20;99.90;;;;;;8398892;28;19924;-71
2023/08/04 08:44:24;;;;;;;;;;;17.20;99.90;;;;;;8418990;28;20250;-70
2023/08/04 08:48:27;;;;;;;;;;;17.20;99.90;;;;;;8422616;28;19924;-71
2023/08/04 08:52:32;;;;;;;;;;;17.30;99.90;;;;;;8410674;28;19924;-71
2023/08/04 08:56:34;;;;;;;;;;;17.30;99.90;;;;;;8421564;28;19924;-71
2023/08/04 09:00:35;;;;;;;;;;;17.20;99.90;;;;;;8424009;28;20338;-71
2023/08/04 09:04:38;;;;;;;;;;;17.20;99.90;;;;;;8424838;28;19927;-71
2023/08/04 09:08:40;;;;;;;;;;;17.20;99.90;;;;;;8429211;28;20429;-70
2023/08/04 09:12:44;;;;;;;;;;;17.20;99.90;;;;;;8413109;28;19924;-70
2023/08/04 09:16:47;;;;;;;;;;;17.30;99.90;;;;;;8399201;28;19929;-71
2023/08/04 09:20:56;;;;;;;;;;;17.40;99.90;;;;;;8425351;28;19981;-71
2023/08/04 09:24:58;;;;;;;;;;;17.40;99.90;;;;;;8409140;28;19936;-71
2023/08/04 09:29:04;;;;;;;;;;;17.40;99.90;;;;;;8427905;28;19924;-71
2023/08/04 09:33:08;;;;;;;;;;;17.40;99.90;;;;;;8425377;28;19924;-71
2023/08/04 09:37:15;;;;;;;;;;;17.50;99.90;;;;;;8428418;28;19946;-70
2023/08/04 09:41:17;;;;;;;;;;;17.50;99.90;;;;;;8423910;28;19927;-71
2023/08/04 09:45:19;;;;;;;;;;;17.60;99.90;;;;;;8404235;28;19938;-71
2023/08/04 09:49:22;;;;;;;;;;;17.70;99.90;;;;;;8429893;28;19999;-71
2023/08/04 09:53:23;;;;;;;;;;;17.80;99.90;;;;;;8406911;28;19924;-71
2023/08/04 09:57:25;;;;;;;;;;;18.00;99.90;;;;;;8422090;28;19924;-71
2023/08/04 10:01:27;;;;;;;;;;;18.00;99.90;;;;;;8423363;28;19947;-71
2023/08/04 10:05:29;;;;;;;;;;;18.20;99.90;;;;;;8418367;28;19974;-71
2023/08/04 10:09:32;;;;;;;;;;;18.30;99.90;;;;;;8414178;28;20326;-71
2023/08/04 10:13:35;;;;;;;;;;;18.40;99.90;;;;;;8423584;28;20303;-70
2023/08/04 10:17:40;;;;;;;;;;;18.40;99.90;;;;;;8390927;28;20277;-71
2023/08/04 10:21:42;;;;;;;;;;;18.40;99.90;;;;;;8403040;28;20352;-71
2023/08/04 10:25:54;;;;;;;;;;;18.40;99.90;;;;;;8414469;28;19935;-70
2023/08/04 10:30:03;;;;;;;;;;;18.50;99.90;;;;;;8404046;28;19925;-71
2023/08/04 10:34:17;;;;;;;;;;;18.50;99.90;;;;;;8426680;28;19924;-71
2023/08/04 10:38:19;;;;;;;;;;;18.50;99.90;;;;;;8406391;28;19924;-71
2023/08/04 10:42:23;;;;;;;;;;;18.60;99.90;;;;;;8418420;28;20295;-71
2023/08/04 10:46:25;;;;;;;;;;;18.70;99.90;;;;;;8420883;28;20261;-71
2023/08/04 10:50:27;;;;;;;;;;;18.70;99.90;;;;;;8420273;28;19974;-71
2023/08/04 10:54:28;;;;;;;;;;;18.80;99.90;;;;;;8420746;28;19928;-70
2023/08/04 10:58:30;;;;;;;;;;;18.80;99.90;;;;;;8422667;28;20295;-71
2023/08/04 11:02:32;;;;;;;;;;;19.00;99.90;;;;;;8421927;28;20376;-71
2023/08/04 11:06:34;;;;;;;;;;;19.10;99.90;;;;;;8418763;28;19925;-71
2023/08/04 11:10:36;;;;;;;;;;;19.20;99.90;;;;;;8409202;28;19949;-71
2023/08/04 11:14:38;;;;;;;;;;;19.30;99.90;;;;;;8394848;28;19947;-72
2023/08/04 11:18:41;;;;;;;;;;;19.30;99.90;;;;;;8418922;28;20388;-71
2023/08/04 11:22:44;;;;;;;;;;;19.30;99.90;;;;;;8424011;28;20395;-71
2023/08/04 11:26:46;;;;;;;;;;;19.30;99.90;;;;;;8417671;28;19930;-71
2023/08/04 11:30:48;;;;;;;;;;;19.30;99.90;;;;;;8408144;28;19928;-71
2023/08/04 11:34:52;;;;;;;;;;;19.40;99.90;;;;;;8412169;28;20215;-71
2023/08/04 11:38:57;;;;;;;;;;;19.50;99.90;;;;;;8424869;28;19924;-71
2023/08/04 11:42:59;;;;;;;;;;;19.50;99.90;;;;;;8410834;28;19935;-71
2023/08/04 11:47:04;;;;;;;;;;;19.40;99.90;;;;;;8423249;28;19924;-71
2023/08/04 11:51:06;;;;;;;;;;;19.40;99.90;;;;;;8412181;28;19924;-71
2023/08/04 11:55:08;;;;;;;;;;;19.40;99.90;;;;;;8427821;28;19924;-71
2023/08/04 11:59:10;;;;;;;;;;;19.50;99.90;;;;;;8421352;28;19931;-71
2023/08/04 12:03:12;;;;;;;;;;;19.40;99.90;;;;;;8424863;28;19928;-71
2023/08/04 12:07:15;;;;;;;;;;;19.40;99.90;;;;;;8408299;28;20441;-70
2023/08/04 12:11:18;;;;;;;;;;;19.30;99.90;;;;;;8430331;28;20283;-71
2023/08/04 12:15:20;;;;;;;;;;;19.30;99.90;;;;;;8430544;28;19931;-71
2023/08/04 12:19:27;;;;;;;;;;;19.30;99.90;;;;;;8425229;28;19931;-71
2023/08/04 12:23:29;;;;;;;;;;;19.30;99.90;;;;;;8411752;28;19924;-71
2023/08/04 12:27:30;;;;;;;;;;;19.40;99.90;;;;;;8416724;28;19970;-71
2023/08/04 12:31:32;;;;;;;;;;;19.50;99.90;;;;;;8403877;28;20342;-71
2023/08/04 12:35:34;;;;;;;;;;;19.60;99.90;;;;;;8426486;28;19963;-71
2023/08/04 12:39:35;;;;;;;;;;;19.80;99.90;;;;;;8428985;28;19924;-71
2023/08/04 12:43:37;;;;;;;;;;;19.90;99.90;;;;;;8430307;28;19974;-71
2023/08/04 12:47:39;;;;;;;;;;;20.00;99.90;;;;;;8417040;28;19928;-70
2023/08/04 12:51:41;;;;;;;;;;;20.00;99.90;;;;;;8424106;28;19939;-71
2023/08/04 12:55:42;;;;;;;;;;;19.90;99.90;;;;;;8402609;28;20673;-71
2023/08/04 12:59:44;;;;;;;;;;;19.80;99.90;;;;;;8408073;28;19933;-70
2023/08/04 13:03:46;;;;;;;;;;;19.80;99.90;;;;;;8408249;28;19928;-71
2023/08/04 13:07:48;;;;;;;;;;;19.80;99.90;;;;;;8406072;28;19924;-71
2023/08/04 13:11:49;;;;;;;;;;;19.80;99.90;;;;;;8397565;28;19928;-71
2023/08/04 13:15:52;;;;;;;;;;;19.80;99.90;;;;;;8399649;28;19928;-71
2023/08/04 13:19:54;;;;;;;;;;;19.80;99.90;;;;;;8407101;28;19955;-71
2023/08/04 13:23:56;;;;;;;;;;;19.90;99.90;;;;;;8408302;28;19928;-71
2023/08/04 13:27:57;;;;;;;;;;;20.00;99.90;;;;;;8401808;28;19924;-71
2023/08/04 13:31:59;;;;;;;;;;;20.00;99.90;;;;;;8400464;28;19932;-71
2023/08/04 13:36:01;;;;;;;;;;;19.90;99.90;;;;;;8401690;28;19934;-71
2023/08/04 13:40:02;;;;;;;;;;;19.90;99.90;;;;;;8404822;28;19929;-71
2023/08/04 13:44:04;;;;;;;;;;;20.00;99.90;;;;;;8403503;28;19924;-71
2023/08/04 13:48:06;;;;;;;;;;;20.00;99.90;;;;;;8398047;28;19924;-71
2023/08/04 13:52:08;;;;;;;;;;;20.00;99.90;;;;;;8399920;28;19924;-71
2023/08/04 13:56:09;;;;;;;;;;;19.90;99.90;;;;;;8398473;28;19928;-71
2023/08/04 14:00:11;;;;;;;;;;;19.80;99.90;;;;;;8404324;28;19974;-71
2023/08/04 14:04:14;;;;;;;;;;;19.80;99.90;;;;;;8405176;28;19924;-71
2023/08/04 14:08:16;;;;;;;;;;;19.90;99.90;;;;;;8406347;28;20007;-71
2023/08/04 14:12:18;;;;;;;;;;;19.90;99.90;;;;;;8403400;28;19928;-71
2023/08/04 14:16:19;;;;;;;;;;;20.00;99.90;;;;;;8404228;28;19932;-70
2023/08/04 14:20:21;;;;;;;;;;;20.20;99.90;;;;;;8400731;28;19928;-71
2023/08/04 14:24:23;;;;;;;;;;;20.20;99.90;;;;;;8392579;28;19925;-71
2023/08/04 14:28:25;;;;;;;;;;;20.20;99.90;;;;;;8396847;28;20408;-71
2023/08/04 14:37:36;;;;;;;;;;;20.30;99.90;;;;;;8399651;28;19923;-71
2023/08/04 14:41:39;;;;;;;;;;;20.30;99.90;;;;;;8394793;28;19971;-71
2023/08/04 14:45:41;;;;;;;;;;;20.50;99.90;;;;;;8390718;28;19978;-71
2023/08/04 14:49:42;;;;;;;;;;;20.50;99.90;;;;;;8397746;28;20380;-71
2023/08/04 14:53:44;;;;;;;;;;;20.50;99.90;;;;;;8399563;28;19974;-71
2023/08/04 14:57:46;;;;;;;;;;;20.60;99.90;;;;;;8399832;28;19925;-71
2023/08/04 15:01:48;;;;;;;;;;;20.50;99.90;;;;;;8418056;28;19970;-71
2023/08/04 15:05:49;;;;;;;;;;;20.30;99.90;;;;;;8405851;28;19940;-71
2023/08/04 15:09:51;;;;;;;;;;;20.20;99.90;;;;;;8403900;28;19943;-71
2023/08/04 15:13:53;;;;;;;;;;;20.30;99.90;;;;;;8404994;28;19929;-71
2023/08/04 15:17:56;;;;;;;;;;;20.50;99.90;;;;;;8402264;28;19925;-71
2023/08/04 15:21:58;;;;;;;;;;;20.70;99.90;;;;;;8403234;28;19968;-71
2023/08/04 15:26:00;;;;;;;;;;;20.80;99.90;;;;;;8397864;28;19963;-71
2023/08/04 15:30:02;;;;;;;;;;;21.00;99.90;;;;;;8400376;28;20276;-71
2023/08/04 15:34:05;;;;;;;;;;;21.10;99.90;;;;;;8396384;28;19924;-71
2023/08/04 15:38:07;;;;;;;;;;;21.20;99.90;;;;;;8402082;28;20367;-71
2023/08/04 15:42:08;;;;;;;;;;;21.30;99.90;;;;;;8404769;28;19931;-70
2023/08/04 15:46:10;;;;;;;;;;;21.30;99.90;;;;;;8398902;28;20367;-71
2023/08/04 15:50:12;;;;;;;;;;;21.40;99.90;;;;;;8399877;28;19924;-71
2023/08/04 15:54:13;;;;;;;;;;;21.50;99.90;;;;;;8401721;28;19932;-71
2023/08/04 15:58:15;;;;;;;;;;;21.70;99.90;;;;;;8384000;28;19932;-71
2023/08/04 16:02:17;;;;;;;;;;;21.70;99.90;;;;;;8398937;28;20292;-71
2023/08/04 16:06:18;;;;;;;;;;;21.50;99.90;;;;;;8396171;28;19977;-71
2023/08/04 16:10:20;;;;;;;;;;;21.20;99.90;;;;;;8394264;28;19969;-71
2023/08/04 16:14:22;;;;;;;;;;;20.90;99.90;;;;;;8391069;28;19932;-71
2023/08/04 16:18:24;;;;;;;;;;;20.70;99.90;;;;;;8400863;28;19928;-71
2023/08/04 16:22:25;;;;;;;;;;;20.50;99.90;;;;;;8388890;28;19954;-71
2023/08/04 16:26:28;;;;;;;;;;;20.40;99.90;;;;;;8404442;28;19933;-71
2023/08/04 16:30:30;;;;;;;;;;;20.80;99.90;;;;;;8403315;28;19974;-71
2023/08/04 16:34:31;;;;;;;;;;;21.30;99.90;;;;;;8409213;28;19924;-71
2023/08/04 16:38:33;;;;;;;;;;;21.50;99.90;;;;;;8405782;28;19970;-71
2023/08/04 16:42:35;;;;;;;;;;;21.50;99.90;;;;;;8407042;28;19932;-71
2023/08/04 16:46:36;;;;;;;;;;;21.80;99.90;;;;;;8399888;28;20022;-71
2023/08/04 16:50:38;;;;;;;;;;;22.00;99.90;;;;;;8406292;28;19928;-71
2023/08/04 16:54:40;;;;;;;;;;;22.20;99.90;;;;;;8394043;28;19928;-70
2023/08/04 16:58:41;;;;;;;;;;;22.30;99.90;;;;;;8405250;28;20281;-71
2023/08/04 17:02:43;;;;;;;;;;;22.30;99.90;;;;;;8395557;28;19933;-71
2023/08/04 17:06:45;;;;;;;;;;;22.20;99.90;;;;;;8403499;28;19977;-71
2023/08/04 17:10:47;;;;;;;;;;;21.90;99.90;;;;;;8405400;28;20015;-70
2023/08/04 17:14:53;;;;;;;;;;;21.80;99.90;;;;;;8382030;28;19955;-71
2023/08/04 17:18:55;;;;;;;;;;;21.60;99.90;;;;;;8405456;28;19927;-71
2023/08/04 17:22:57;;;;;;;;;;;21.50;99.90;;;;;;8399280;28;19926;-71
2023/08/04 17:26:58;;;;;;;;;;;21.30;99.90;;;;;;8394511;28;19928;-71
2023/08/04 17:31:01;;;;;;;;;;;21.10;99.90;;;;;;8388046;28;20054;-71
2023/08/04 17:35:03;;;;;;;;;;;21.00;99.90;;;;;;8392823;28;20069;-71
2023/08/04 17:49:25;;;;;;;;;;;20.90;99.90;;;;;;8398505;28;19939;-70
2023/08/04 17:53:27;;;;;;;;;;;20.80;99.90;;;;;;8418676;28;19931;-70
2023/08/04 17:57:29;;;;;;;;;;;20.60;99.90;;;;;;8402138;28;19924;-71
2023/08/04 18:01:31;;;;;;;;;;;20.50;99.90;;;;;;8405791;28;19928;-71
2023/08/04 18:05:38;;;;;;;;;;;20.40;99.90;;;;;;8400896;28;19983;-70
2023/08/04 18:09:40;;;;;;;;;;;20.30;99.90;;;;;;8383630;28;19978;-70
2023/08/04 18:13:42;;;;;;;;;;;20.20;99.90;;;;;;8400800;28;20307;-70
2023/08/04 18:17:43;;;;;;;;;;;20.20;99.90;;;;;;8398733;28;19939;-70
2023/08/04 18:21:45;;;;;;;;;;;20.10;99.90;;;;;;8404218;28;19928;-70
2023/08/04 18:25:46;;;;;;;;;;;20.10;99.90;;;;;;8400195;28;19965;-70
2023/08/04 18:29:48;;;;;;;;;;;20.00;99.90;;;;;;8400914;28;19935;-70
2023/08/04 18:33:50;;;;;;;;;;;20.00;99.90;;;;;;8396028;28;19939;-70
2023/08/04 18:37:51;;;;;;;;;;;20.00;99.90;;;;;;8396300;28;20277;-70
2023/08/04 18:41:53;;;;;;;;;;;19.90;99.90;;;;;;8395834;28;20293;-71
2023/08/04 18:45:55;;;;;;;;;;;19.90;99.90;;;;;;8401006;28;19950;-70
2023/08/04 18:49:57;;;;;;;;;;;20.00;99.90;;;;;;8401496;28;20376;-71
2023/08/04 18:53:59;;;;;;;;;;;19.90;99.90;;;;;;8400373;28;19924;-70
2023/08/04 18:58:00;;;;;;;;;;;19.90;99.90;;;;;;8398480;28;19928;-71
2023/08/04 19:02:02;;;;;;;;;;;19.80;99.90;;;;;;8409918;28;19929;-70
2023/08/04 19:06:04;;;;;;;;;;;19.80;99.90;;;;;;8402117;28;19925;-70
2023/08/04 19:10:06;;;;;;;;;;;19.80;99.90;;;;;;8398843;28;19928;-71
2023/08/04 19:14:09;;;;;;;;;;;19.70;99.90;;;;;;8409082;28;20273;-71
2023/08/04 19:18:11;;;;;;;;;;;19.70;99.90;;;;;;8402278;28;19931;-71
2023/08/04 19:22:13;;;;;;;;;;;19.60;99.90;;;;;;8397259;28;19932;-71
2023/08/04 19:26:15;;;;;;;;;;;19.60;99.90;;;;;;8393653;28;19924;-71
2023/08/04 19:30:16;;;;;;;;;;;19.60;99.90;;;;;;8406312;28;19931;-70
2023/08/04 19:34:18;;;;;;;;;;;19.50;99.90;;;;;;8390223;28;20337;-70
2023/08/04 19:38:20;;;;;;;;;;;19.50;99.90;;;;;;8398706;28;19925;-70
2023/08/04 19:42:21;;;;;;;;;;;19.40;99.90;;;;;;8399144;28;19970;-70
2023/08/04 19:46:23;;;;;;;;;;;19.40;99.90;;;;;;8389445;28;19974;-70
2023/08/04 19:50:28;;;;;;;;;;;19.30;99.90;;;;;;8398489;28;20005;-71
2023/08/04 19:54:30;;;;;;;;;;;19.20;99.90;;;;;;8391790;28;19924;-70
2023/08/04 19:58:32;;;;;;;;;;;19.20;99.90;;;;;;8406679;28;20272;-71
2023/08/04 20:02:33;;;;;;;;;;;19.10;99.90;;;;;;8409214;28;19932;-70
2023/08/04 20:06:35;;;;;;;;;;;19.00;99.90;;;;;;8408078;28;19925;-70
2023/08/04 20:10:37;;;;;;;;;;;18.90;99.90;;;;;;8398197;28;19925;-70
2023/08/04 20:14:38;;;;;;;;;;;18.80;99.90;;;;;;8408106;28;19925;-70
2023/08/04 20:18:42;;;;;;;;;;;18.80;99.90;;;;;;8421361;28;19977;-70
2023/08/04 20:22:43;;;;;;;;;;;18.70;99.90;;;;;;8410000;28;19973;-70
2023/08/04 20:26:45;;;;;;;;;;;18.70;99.90;;;;;;8409241;28;21756;-70
2023/08/04 20:30:50;;;;;;;;;;;18.60;99.90;;;;;;8404903;28;19928;-70
2023/08/04 20:34:51;;;;;;;;;;;18.60;99.90;;;;;;8407734;28;20430;-70
2023/08/04 20:38:53;;;;;;;;;;;18.50;99.90;;;;;;8408730;28;19928;-71
2023/08/04 20:42:55;;;;;;;;;;;18.50;99.90;;;;;;8407336;28;19932;-70
2023/08/04 20:46:56;;;;;;;;;;;18.40;99.90;;;;;;8421132;28;20392;-70
2023/08/04 20:50:58;;;;;;;;;;;18.40;99.90;;;;;;8402524;28;20276;-70
2023/08/04 20:55:00;;;;;;;;;;;18.40;99.90;;;;;;8404685;28;19928;-70
2023/08/04 20:59:02;;;;;;;;;;;18.40;99.90;;;;;;8410593;28;19928;-70
2023/08/04 21:03:03;;;;;;;;;;;18.40;99.90;;;;;;8400145;28;19934;-70
2023/08/04 21:07:06;;;;;;;;;;;18.40;99.90;;;;;;8411914;28;19931;-70
2023/08/04 21:11:08;;;;;;;;;;;18.40;99.90;;;;;;8410122;28;19924;-70
2023/08/04 21:15:11;;;;;;;;;;;18.40;99.90;;;;;;8415463;28;20376;-70
2023/08/04 21:19:12;;;;;;;;;;;18.40;99.90;;;;;;8407775;28;19976;-70
2023/08/04 21:23:19;;;;;;;;;;;18.30;99.90;;;;;;8419199;28;19924;-70
2023/08/04 21:27:21;;;;;;;;;;;18.30;99.90;;;;;;8402654;28;19924;-70
2023/08/04 21:31:23;;;;;;;;;;;18.30;99.90;;;;;;8427727;28;19926;-70
2023/08/04 21:35:25;;;;;;;;;;;18.20;99.90;;;;;;8427406;28;20306;-71
2023/08/04 21:39:26;;;;;;;;;;;18.20;99.90;;;;;;8430369;28;19924;-71
2023/08/04 21:43:28;;;;;;;;;;;18.20;99.90;;;;;;8395578;28;20403;-71
2023/08/04 21:47:30;;;;;;;;;;;18.20;99.90;;;;;;8416018;28;20291;-71
2023/08/04 21:51:31;;;;;;;;;;;18.10;99.90;;;;;;8421879;28;19934;-70
2023/08/04 21:55:33;;;;;;;;;;;18.00;99.90;;;;;;8419686;28;19928;-70
2023/08/04 21:59:35;;;;;;;;;;;17.90;99.90;;;;;;8411180;28;19924;-70
2023/08/04 22:03:37;;;;;;;;;;;17.80;99.90;;;;;;8421624;28;19931;-70
2023/08/04 22:07:39;;;;;;;;;;;17.70;99.90;;;;;;8408141;28;20363;-70
2023/08/04 22:11:41;;;;;;;;;;;17.60;99.90;;;;;;8401347;28;19967;-70
2023/08/04 22:15:42;;;;;;;;;;;17.60;99.90;;;;;;8413887;28;20372;-70
2023/08/04 22:19:45;;;;;;;;;;;17.50;99.90;;;;;;8422506;28;20484;-70
2023/08/04 22:23:47;;;;;;;;;;;17.40;99.90;;;;;;8391503;28;19928;-71
2023/08/04 22:27:49;;;;;;;;;;;17.30;99.90;;;;;;8423133;28;19993;-71
2023/08/04 22:31:51;;;;;;;;;;;17.20;99.90;;;;;;8424237;28;19931;-70
2023/08/04 22:35:53;;;;;;;;;;;17.20;99.90;;;;;;8426604;28;19928;-70
2023/08/04 22:39:54;;;;;;;;;;;17.10;99.90;;;;;;8420054;28;19954;-70
2023/08/04 22:49:00;;;;;;;;;;;17.00;99.90;;;;;;8393332;28;20622;-71
2023/08/04 22:53:01;;;;;;;;;;;16.90;99.90;;;;;;8421053;28;19924;-71
2023/08/04 22:57:03;;;;;;;;;;;16.80;99.90;;;;;;8394399;28;20348;-70
2023/08/04 23:01:06;;;;;;;;;;;16.70;99.90;;;;;;8395554;28;19924;-70
2023/08/04 23:05:07;;;;;;;;;;;16.70;99.90;;;;;;8420637;28;19924;-70
2023/08/04 23:09:09;;;;;;;;;;;16.60;99.90;;;;;;8406397;28;19931;-70
2023/08/04 23:13:11;;;;;;;;;;;16.60;99.90;;;;;;8407973;28;19924;-70
2023/08/04 23:17:12;;;;;;;;;;;16.60;99.90;;;;;;8423943;28;19928;-70
2023/08/04 23:21:14;;;;;;;;;;;16.50;99.90;;;;;;8427206;28;19985;-70
2023/08/04 23:25:16;;;;;;;;;;;16.50;99.90;;;;;;8413035;28;19931;-70
2023/08/04 23:29:17;;;;;;;;;;;16.40;99.90;;;;;;8401982;28;19924;-70
2023/08/04 23:33:21;;;;;;;;;;;16.40;99.90;;;;;;8419938;28;20372;-70
2023/08/04 23:37:23;;;;;;;;;;;16.40;99.90;;;;;;8430593;28;19960;-70
2023/08/04 23:41:25;;;;;;;;;;;16.40;99.90;;;;;;8427708;28;19928;-71
2023/08/04 23:45:26;;;;;;;;;;;16.30;99.90;;;;;;8428949;28;19924;-70
2023/08/04 23:49:28;;;;;;;;;;;16.30;99.90;;;;;;8432504;28;19924;-70
2023/08/04 23:53:30;;;;;;;;;;;16.30;99.90;;;;;;8406203;28;19950;-70
2023/08/04 23:57:31;;;;;;;;;;;16.20;99.90;;;;;;8420155;28;20291;-70
